• Join FlightAware (Why Join?)
  • Login
  • US Flag 
Gobble Gobble! 
09:37AM EST


 

Airport Tracker/Info


-or-


 

Live Flight TrackerFlight Track Log ✈ N55NG ✈ 10-Oct-2013 ✈ KVJI - KBED

Flight Track Log - Related Links

Times and Time Zones

All times are in EDT time to prevent confusion due to time zone crossing. See the N55NG flight status page for this flight to view local times or setup timezone preferences in your user account.

Time Position Orientation Groundspeed Altitude Reporting Facility
EDT Latitude Longitude Course Direction KTS MPH feet Rate Location/Type
12:13PM 36.6533 -82.0619 89° East 209 241 4,100  Level Atlanta Center
12:14PM 36.6544 -81.9969 89° East 214 246 7,500 2,940 Climbing Atlanta Center
12:15PM 36.6969 -81.9261 53° Northeast 189 217 10,000 1,440 Climbing Atlanta Center
12:16PM 36.7497 -81.8367 54° Northeast 315 362 10,400 1,200 Climbing Atlanta Center
12:17PM 36.8064 -81.7444 52° Northeast 328 377 12,400 1,980 Climbing Atlanta Center
12:18PM 36.8631 -81.6519 53° Northeast 333 383 14,400 1,980 Climbing Atlanta Center
12:19PM 36.9214 -81.5542 53° Northeast 333 383 16,400 1,800 Climbing Atlanta Center
12:20PM 36.9758 -81.4561 55° Northeast 340 391 18,000 1,800 Climbing Atlanta Center
12:23PM 37.1111 -81.2364 52° Northeast 357 411 22,400 1,980 Climbing Indianapolis Center
12:24PM 37.1783 -81.1236 53° Northeast 366 421 24,600 1,980 Climbing Indianapolis Center
12:25PM 37.2389 -81.0239 53° Northeast 369 425 26,500 1,860 Climbing Indianapolis Center
12:26PM 37.2989 -80.9219 53° Northeast 372 428 28,500 2,040 Climbing Indianapolis Center
12:27PM 37.3700 -80.7994 54° Northeast 371 427 30,800 1,920 Climbing Indianapolis Center
12:27PM 37.3944 -80.7550 55° Northeast 364 419 31,600 1,620 Climbing Washington Center
12:28PM 37.4300 -80.6975 52° Northeast 371 427 32,500 1,560 Climbing Indianapolis Center
12:29PM 37.4911 -80.5944 53° Northeast 374 430 34,000 1,560 Climbing Indianapolis Center
12:30PM 37.5392 -80.4553 66° East 372 428 35,800 1,500 Climbing Indianapolis Center
12:31PM 37.5642 -80.3308 76° East 375 432 37,200 1,080 Climbing Indianapolis Center
12:32PM 37.5919 -80.2061 74° East 379 436 38,100 780 Climbing Indianapolis Center
12:33PM 37.6192 -80.0758 75° East 390 449 38,900 720 Climbing Indianapolis Center
12:34PM 37.6542 -79.9161 74° East 402 463 39,600 540 Climbing Indianapolis Center
12:35PM 37.6842 -79.7789 75° East 411 473 40,100 480 Climbing Indianapolis Center
12:36PM 37.7142 -79.6347 75° East 425 489 40,600 420 Climbing Indianapolis Center
12:37PM 37.7453 -79.4892 75° East 433 498 41,000 120 Climbing Indianapolis Center
12:38PM 37.7886 -79.2997 74° East 435 501 41,000  Level Washington Center
12:39PM 37.8206 -79.1356 76° East 440 506 41,000  Level Washington Center
12:40PM 37.8519 -78.9872 75° East 440 506 41,000  Level Washington Center
12:41PM 37.8811 -78.8411 76° East 440 506 41,000  Level Washington Center
12:42PM 37.9100 -78.6922 76° East 429 494 41,000  Level Washington Center
12:43PM 37.9408 -78.5461 75° East 429 494 41,000  Level Washington Center
12:44PM 37.9669 -78.4128 76° East 429 494 41,000  Level Washington Center
12:45PM 37.9953 -78.2664 76° East 429 494 41,000  Level Washington Center
12:46PM 38.0256 -78.1278 74° East 429 494 41,000  Level Washington Center
12:47PM 38.0908 -77.9981 57° Northeast 417 480 41,000  Level Washington Center
12:48PM 38.1539 -77.8681 58° Northeast 417 480 41,000  Level Washington Center
12:49PM 38.2186 -77.7403 57° Northeast 430 495 41,000  Level Washington Center
12:50PM 38.2836 -77.6100 58° Northeast 430 495 41,000  Level Washington Center
12:51PM 38.3481 -77.4794 58° Northeast 430 495 41,000  Level Washington Center
12:52PM 38.4192 -77.3300 59° Northeast 435 501 41,000  Level Washington Center
12:53PM 38.4836 -77.1989 58° Northeast 435 501 41,000  Level Washington Center
12:54PM 38.5478 -77.0678 58° Northeast 435 501 41,000  Level Washington Center
12:55PM 38.6119 -76.9333 59° Northeast 435 501 41,000  Level Washington Center
12:56PM 38.6781 -76.8042 57° Northeast 435 501 41,000  Level Washington Center
12:57PM 38.7397 -76.6697 60° Northeast 447 514 41,000  Level Washington Center
12:58PM 38.7972 -76.5319 62° Northeast 442 509 41,000  Level Washington Center
12:59PM 38.8586 -76.3914 61° Northeast 436 502 41,000  Level Washington Center
01:00PM 38.9156 -76.2558 62° Northeast 436 502 41,000  Level Washington Center
01:01PM 38.9850 -76.1444 51° Northeast 436 502 41,000  Level Washington Center
01:02PM 39.0731 -76.0356 44° Northeast 436 502 41,000  Level Washington Center
01:03PM 39.1589 -75.9236 45° Northeast 431 496 41,000 -360 Level Washington Center
01:04PM 39.2467 -75.8167 43° Northeast 431 496 40,300 -900 Descending Washington Center
01:05PM 39.3342 -75.7017 45° Northeast 431 496 39,300 -1,020 Descending Washington Center
01:06PM 39.4197 -75.5861 46° Northeast 431 496 38,300 -1,020 Descending Washington Center
01:07PM 39.5092 -75.4733 44° Northeast 431 496 37,300 -1,020 Descending Washington Center
01:08PM 39.5986 -75.3544 46° Northeast 437 503 36,300 -780 Descending Washington Center
01:10PM 39.7797 -75.1008 47° Northeast 464 534 35,000 -480 Descending New York Center
01:11PM 39.8656 -74.9792 47° Northeast 459 528 35,000  Level New York Center
01:12PM 39.9467 -74.8622 48° Northeast 452 520 35,000  Level New York Center
01:13PM 40.0364 -74.7428 46° Northeast 452 520 35,000  Level New York Center
01:14PM 40.1236 -74.6200 47° Northeast 452 520 35,000  Level New York Center
01:15PM 40.2047 -74.4969 49° Northeast 452 520 35,000 -600 Level New York Center
01:16PM 40.3019 -74.3906 40° Northeast 452 520 33,900 -1,200 Descending New York Center
01:17PM 40.3989 -74.2839 40° Northeast 446 513 32,700 -1,200 Descending New York Center
01:18PM 40.4653 -74.1483 57° Northeast 446 513 31,500 -1,500 Descending New York Center
01:19PM 40.5217 -74.0008 63° Northeast 439 505 29,700 -1,920 Descending New York Center
01:20PM 40.5797 -73.8533 63° Northeast 439 505 27,700 -1,980 Descending New York Center
01:22PM 40.6814 -73.5894 63° Northeast 447 514 24,200 -1,980 Descending Boston Center
01:23PM 40.7369 -73.4425 63° Northeast 452 520 22,200 -1,620 Descending Boston Center
01:24PM 40.7944 -73.3147 59° Northeast 425 489 21,000 -600 Descending Boston Center
01:25PM 40.8597 -73.2250 46° Northeast 413 475 21,000 -660 Level Boston Center
01:26PM 40.9667 -73.1053 40° Northeast 413 475 19,800 -1,380 Descending Boston Center
01:27PM 41.0569 -73.0017 41° Northeast 413 475 18,300 -1,440 Descending Boston Center
01:28PM 41.1408 -72.9003 42° Northeast 419 482 17,000 -1,440 Descending Boston Center
01:29PM 41.2181 -72.8072 42° Northeast 405 466 15,500 -1,020 Descending Boston Center
01:30PM 41.2872 -72.7275 41° Northeast 374 430 15,000 -300 Descending Boston Center
01:31PM 41.3914 -72.6586 26° Northeast 367 422 15,000  Level Boston Center
01:32PM 41.4936 -72.6175 17° North 380 437 15,000  Level Boston Center
01:33PM 41.6000 -72.5706 18° North 386 444 15,000 -420 Level Boston Center
01:34PM 41.6833 -72.5094 29° Northeast 368 423 14,200 -1,080 Descending Boston Center
01:35PM 41.7294 -72.4539 42° Northeast 339 390 13,300 -1,500 Descending Boston Center
01:35PM 41.7586 -72.4206 40° Northeast 345 397 12,800 -1,380 Descending Boston Center
01:36PM 41.8294 -72.3425 39° Northeast 361 415 11,500 -1,320 Descending Boston Center
01:36PM 41.8272 -72.3453 223° Southwest 356 410 11,500 -660 Level Boston Center
01:37PM 41.8917 -72.2728 40° Northeast 355 409 11,000 -540 Descending Boston Center
01:37PM 41.9083 -72.2531 41° Northeast 356 410 11,000 -240 Level Boston Center
01:38PM 41.9542 -72.2028 39° Northeast 330 380 10,800 -720 Descending Boston Center
01:38PM 41.9708 -72.1803 45° Northeast 342 394 10,300 -1,320 Descending Boston Center
01:39PM 42.0289 -72.1328 31° Northeast 295 339 9,300 -1,140 Descending Boston Center
01:39PM 42.0458 -72.1381 347° North 300 345 9,200 -1,800 Descending Boston Center
01:40PM 42.1042 -72.1631 342° North 296 341 7,700 -1,920 Descending Boston Center
01:40PM 42.1167 -72.1686 342° North 269 310 7,300 -1,980 Descending Boston Center
01:41PM 42.1772 -72.1881 347° North 276 318 5,800 -2,220 Descending Boston Center
01:41PM 42.1981 -72.1711 31° Northeast 277 319 5,200 -780 Descending Boston Center
01:42PM 42.2250 -72.1206 54° Northeast 256 295 5,000 -240 Descending Boston Center
01:42PM 42.2311 -72.1008 67° East 229 264 5,000  Level Boston Center
01:43PM 42.2558 -72.0361 63° Northeast 257 296 5,000  Level Boston Center
01:44PM 42.2867 -71.9489 64° Northeast 265 305 5,000  Level Boston Center
01:46PM 42.3500 -71.7833 63° Northeast 264 304 5,000  Level KA90
01:47PM 42.3833 -71.6833 66° East 261 300 5,000 -240 Level KA90
01:48PM 42.4167 -71.6333 48° Northeast 174 200 4,600 -960 Descending KA90
01:49PM 42.4500 -71.6000 36° Northeast 165 190 3,100 -900 Descending KA90
01:50PM 42.4833 -71.5500 48° Northeast 170 196 2,900 -300 Descending KA90
01:51PM 42.4833 -71.5000 90° East 144 166 2,600 -300 Descending KA90
01:52PM 42.5000 -71.4667 56° Northeast 134 154 2,400 -180 Descending KA90
01:53PM 42.5000 -71.4333 90° East 116 133 2,300 -420 Descending KA90
01:54PM 42.4833 -71.3833 114° Southeast 131 151 1,600 -720 Descending KA90
01:55PM 42.4833 -71.3500 90° East 138 159 800 -840 Descending KA90
01:57PM 42.4667 -71.2833 66° East  Level FlightAware Approximate
02:04PM 42.4699 -71.2890 66° East  Level Estimated